sensor_id;sensor_type;location;lat;lon;timestamp;P1;durP1;ratioP1;P2;durP2;ratioP2
1024;SDS011;501;48.214;11.350;2023-04-03T00:00:06;5.97;;;4.90;;
1024;SDS011;501;48.214;11.350;2023-04-03T00:02:32;6.73;;;5.27;;
1024;SDS011;501;48.214;11.350;2023-04-03T00:04:58;8.60;;;5.43;;
1024;SDS011;501;48.214;11.350;2023-04-03T00:07:24;7.03;;;5.10;;
1024;SDS011;501;48.214;11.350;2023-04-03T00:09:50;6.63;;;5.60;;
1024;SDS011;501;48.214;11.350;2023-04-03T00:12:15;9.33;;;6.30;;
1024;SDS011;501;48.214;11.350;2023-04-03T00:14:41;6.10;;;5.40;;
1024;SDS011;501;48.214;11.350;2023-04-03T00:17:07;5.57;;;4.90;;
1024;SDS011;501;48.214;11.350;2023-04-03T00:19:33;6.37;;;5.67;;
1024;SDS011;501;48.214;11.350;2023-04-03T00:21:58;8.30;;;5.40;;
1024;SDS011;501;48.214;11.350;2023-04-03T00:24:24;7.47;;;5.40;;
1024;SDS011;501;48.214;11.350;2023-04-03T00:26:50;6.73;;;5.37;;
1024;SDS011;501;48.214;11.350;2023-04-03T00:29:15;7.07;;;5.53;;
1024;SDS011;501;48.214;11.350;2023-04-03T00:31:41;6.20;;;5.60;;
1024;SDS011;501;48.214;11.350;2023-04-03T00:34:06;7.13;;;6.00;;
1024;SDS011;501;48.214;11.350;2023-04-03T00:36:32;5.60;;;4.87;;
1024;SDS011;501;48.214;11.350;2023-04-03T00:38:58;7.90;;;5.13;;
1024;SDS011;501;48.214;11.350;2023-04-03T00:41:23;6.70;;;5.17;;
1024;SDS011;501;48.214;11.350;2023-04-03T00:43:50;11.97;;;4.93;;
1024;SDS011;501;48.214;11.350;2023-04-03T00:46:16;6.13;;;5.53;;
1024;SDS011;501;48.214;11.350;2023-04-03T00:48:45;6.20;;;5.10;;
1024;SDS011;501;48.214;11.350;2023-04-03T00:51:22;6.40;;;5.00;;
1024;SDS011;501;48.214;11.350;2023-04-03T00:53:59;5.00;;;4.60;;
1024;SDS011;501;48.214;11.350;2023-04-03T00:56:28;6.27;;;4.93;;
1024;SDS011;501;48.214;11.350;2023-04-03T00:58:59;5.60;;;4.40;;
1024;SDS011;501;48.214;11.350;2023-04-03T01:01:27;5.17;;;4.43;;
1024;SDS011;501;48.214;11.350;2023-04-03T01:03:53;4.80;;;4.30;;
1024;SDS011;501;48.214;11.350;2023-04-03T01:06:33;5.53;;;4.33;;
1024;SDS011;501;48.214;11.350;2023-04-03T01:09:01;4.97;;;4.10;;
1024;SDS011;501;48.214;11.350;2023-04-03T01:11:28;7.63;;;4.53;;
1024;SDS011;501;48.214;11.350;2023-04-03T01:13:53;6.80;;;4.83;;
1024;SDS011;501;48.214;11.350;2023-04-03T01:16:19;4.47;;;4.07;;
1024;SDS011;501;48.214;11.350;2023-04-03T01:18:45;5.50;;;4.17;;
1024;SDS011;501;48.214;11.350;2023-04-03T01:26:52;4.87;;;3.70;;
1024;SDS011;501;48.214;11.350;2023-04-03T01:29:18;5.97;;;3.70;;
1024;SDS011;501;48.214;11.350;2023-04-03T01:34:17;3.97;;;3.40;;
1024;SDS011;501;48.214;11.350;2023-04-03T01:36:43;4.37;;;3.70;;
1024;SDS011;501;48.214;11.350;2023-04-03T01:39:09;5.87;;;4.30;;
1024;SDS011;501;48.214;11.350;2023-04-03T01:41:35;2.93;;;2.73;;
1024;SDS011;501;48.214;11.350;2023-04-03T01:44:00;8.00;;;3.77;;
1024;SDS011;501;48.214;11.350;2023-04-03T01:46:26;3.90;;;3.30;;
1024;SDS011;501;48.214;11.350;2023-04-03T01:48:52;4.40;;;3.73;;
1024;SDS011;501;48.214;11.350;2023-04-03T01:51:17;4.20;;;3.80;;
1024;SDS011;501;48.214;11.350;2023-04-03T01:53:43;5.63;;;4.70;;
1024;SDS011;501;48.214;11.350;2023-04-03T01:56:09;4.03;;;3.73;;
1024;SDS011;501;48.214;11.350;2023-04-03T01:58:34;3.60;;;3.30;;
1024;SDS011;501;48.214;11.350;2023-04-03T02:01:00;6.13;;;3.57;;
1024;SDS011;501;48.214;11.350;2023-04-03T02:03:26;3.80;;;3.20;;
1024;SDS011;501;48.214;11.350;2023-04-03T02:05:52;3.40;;;3.10;;
1024;SDS011;501;48.214;11.350;2023-04-03T02:08:18;4.27;;;3.87;;
1024;SDS011;501;48.214;11.350;2023-04-03T02:10:46;4.07;;;3.47;;
1024;SDS011;501;48.214;11.350;2023-04-03T02:13:12;3.90;;;3.50;;
1024;SDS011;501;48.214;11.350;2023-04-03T02:15:38;3.43;;;3.13;;
1024;SDS011;501;48.214;11.350;2023-04-03T02:18:04;3.77;;;3.40;;
1024;SDS011;501;48.214;11.350;2023-04-03T02:20:30;3.73;;;3.10;;
1024;SDS011;501;48.214;11.350;2023-04-03T02:22:56;5.47;;;4.30;;
1024;SDS011;501;48.214;11.350;2023-04-03T02:25:22;3.63;;;3.33;;
1024;SDS011;501;48.214;11.350;2023-04-03T02:27:47;5.10;;;4.13;;
1024;SDS011;501;48.214;11.350;2023-04-03T02:30:13;4.77;;;3.10;;
1024;SDS011;501;48.214;11.350;2023-04-03T02:32:40;3.60;;;3.30;;
1024;SDS011;501;48.214;11.350;2023-04-03T02:35:07;5.30;;;3.30;;
1024;SDS011;501;48.214;11.350;2023-04-03T02:37:33;3.93;;;3.53;;
1024;SDS011;501;48.214;11.350;2023-04-03T02:39:59;4.70;;;3.67;;
1024;SDS011;501;48.214;11.350;2023-04-03T02:42:25;3.90;;;3.57;;
1024;SDS011;501;48.214;11.350;2023-04-03T02:44:51;4.13;;;3.40;;
1024;SDS011;501;48.214;11.350;2023-04-03T02:47:16;5.00;;;2.90;;
1024;SDS011;501;48.214;11.350;2023-04-03T02:49:42;4.20;;;3.80;;
1024;SDS011;501;48.214;11.350;2023-04-03T02:52:10;3.50;;;2.83;;
1024;SDS011;501;48.214;11.350;2023-04-03T02:54:35;3.87;;;3.57;;
1024;SDS011;501;48.214;11.350;2023-04-03T02:57:01;3.43;;;3.13;;
1024;SDS011;501;48.214;11.350;2023-04-03T02:59:27;4.10;;;3.53;;
1024;SDS011;501;48.214;11.350;2023-04-03T03:01:52;3.43;;;3.20;;
1024;SDS011;501;48.214;11.350;2023-04-03T03:04:18;5.07;;;4.10;;
1024;SDS011;501;48.214;11.350;2023-04-03T03:06:44;3.37;;;3.07;;
1024;SDS011;501;48.214;11.350;2023-04-03T03:09:11;3.23;;;2.90;;
1024;SDS011;501;48.214;11.350;2023-04-03T03:11:38;4.97;;;4.07;;
1024;SDS011;501;48.214;11.350;2023-04-03T03:14:04;3.90;;;3.10;;
1024;SDS011;501;48.214;11.350;2023-04-03T03:16:30;3.30;;;3.00;;
1024;SDS011;501;48.214;11.350;2023-04-03T03:18:56;4.50;;;3.50;;
1024;SDS011;501;48.214;11.350;2023-04-03T03:21:21;3.43;;;3.13;;
1024;SDS011;501;48.214;11.350;2023-04-03T03:23:47;4.50;;;4.10;;
1024;SDS011;501;48.214;11.350;2023-04-03T03:26:13;3.73;;;3.43;;
1024;SDS011;501;48.214;11.350;2023-04-03T03:28:39;4.10;;;3.70;;
1024;SDS011;501;48.214;11.350;2023-04-03T03:31:06;3.53;;;3.23;;
1024;SDS011;501;48.214;11.350;2023-04-03T03:33:32;4.37;;;3.87;;
1024;SDS011;501;48.214;11.350;2023-04-03T03:35:58;3.90;;;3.60;;
1024;SDS011;501;48.214;11.350;2023-04-03T03:38:24;3.40;;;2.90;;
1024;SDS011;501;48.214;11.350;2023-04-03T03:40:50;4.30;;;3.10;;
1024;SDS011;501;48.214;11.350;2023-04-03T03:43:16;3.83;;;3.13;;
1024;SDS011;501;48.214;11.350;2023-04-03T03:45:42;4.00;;;3.20;;
1024;SDS011;501;48.214;11.350;2023-04-03T03:48:08;4.27;;;3.67;;
1024;SDS011;501;48.214;11.350;2023-04-03T03:50:34;4.83;;;3.50;;
1024;SDS011;501;48.214;11.350;2023-04-03T03:53:00;3.93;;;3.43;;
1024;SDS011;501;48.214;11.350;2023-04-03T03:55:26;3.63;;;3.20;;
1024;SDS011;501;48.214;11.350;2023-04-03T03:57:51;4.57;;;3.40;;
1024;SDS011;501;48.214;11.350;2023-04-03T04:00:17;6.10;;;4.00;;
1024;SDS011;501;48.214;11.350;2023-04-03T04:02:43;3.77;;;3.47;;
1024;SDS011;501;48.214;11.350;2023-04-03T04:05:09;4.13;;;3.73;;
1024;SDS011;501;48.214;11.350;2023-04-03T04:07:35;3.27;;;3.07;;
1024;SDS011;501;48.214;11.350;2023-04-03T04:10:01;5.00;;;3.67;;
1024;SDS011;501;48.214;11.350;2023-04-03T04:12:27;4.87;;;3.77;;
1024;SDS011;501;48.214;11.350;2023-04-03T04:17:28;3.57;;;3.03;;
1024;SDS011;501;48.214;11.350;2023-04-03T04:19:54;3.97;;;3.57;;
1024;SDS011;501;48.214;11.350;2023-04-03T04:22:20;4.50;;;3.30;;
1024;SDS011;501;48.214;11.350;2023-04-03T04:24:45;3.60;;;3.30;;
1024;SDS011;501;48.214;11.350;2023-04-03T04:27:11;5.83;;;3.30;;
1024;SDS011;501;48.214;11.350;2023-04-03T04:29:37;4.13;;;3.30;;
1024;SDS011;501;48.214;11.350;2023-04-03T04:32:03;3.53;;;3.23;;
1024;SDS011;501;48.214;11.350;2023-04-03T04:34:28;3.43;;;3.13;;
1024;SDS011;501;48.214;11.350;2023-04-03T04:36:55;6.20;;;3.90;;
1024;SDS011;501;48.214;11.350;2023-04-03T04:39:20;3.80;;;3.43;;
1024;SDS011;501;48.214;11.350;2023-04-03T04:41:46;3.63;;;3.23;;
1024;SDS011;501;48.214;11.350;2023-04-03T04:44:11;4.87;;;3.20;;
1024;SDS011;501;48.214;11.350;2023-04-03T04:46:37;4.30;;;3.90;;
1024;SDS011;501;48.214;11.350;2023-04-03T04:49:03;3.73;;;3.40;;
1024;SDS011;501;48.214;11.350;2023-04-03T04:51:28;7.77;;;4.63;;
1024;SDS011;501;48.214;11.350;2023-04-03T04:53:54;3.70;;;3.20;;
1024;SDS011;501;48.214;11.350;2023-04-03T04:56:20;4.93;;;3.60;;
1024;SDS011;501;48.214;11.350;2023-04-03T04:58:46;2.93;;;2.70;;
1024;SDS011;501;48.214;11.350;2023-04-03T05:01:11;3.73;;;3.40;;
1024;SDS011;501;48.214;11.350;2023-04-03T05:03:37;4.20;;;3.57;;
1024;SDS011;501;48.214;11.350;2023-04-03T05:06:03;8.10;;;3.67;;
1024;SDS011;501;48.214;11.350;2023-04-03T05:08:29;5.17;;;3.43;;
1024;SDS011;501;48.214;11.350;2023-04-03T05:10:54;4.67;;;3.50;;
1024;SDS011;501;48.214;11.350;2023-04-03T05:13:20;4.20;;;3.80;;
1024;SDS011;501;48.214;11.350;2023-04-03T05:15:46;4.07;;;3.67;;
1024;SDS011;501;48.214;11.350;2023-04-03T05:18:12;4.33;;;3.43;;
1024;SDS011;501;48.214;11.350;2023-04-03T05:20:38;4.83;;;3.90;;
1024;SDS011;501;48.214;11.350;2023-04-03T05:23:04;4.90;;;4.23;;
1024;SDS011;501;48.214;11.350;2023-04-03T05:25:30;4.17;;;3.83;;
1024;SDS011;501;48.214;11.350;2023-04-03T05:27:56;5.03;;;4.03;;
1024;SDS011;501;48.214;11.350;2023-04-03T05:30:22;4.60;;;4.20;;
1024;SDS011;501;48.214;11.350;2023-04-03T05:32:47;5.30;;;4.07;;
1024;SDS011;501;48.214;11.350;2023-04-03T05:35:13;3.63;;;3.10;;
1024;SDS011;501;48.214;11.350;2023-04-03T05:37:39;5.00;;;3.90;;
1024;SDS011;501;48.214;11.350;2023-04-03T05:40:06;3.90;;;3.60;;
1024;SDS011;501;48.214;11.350;2023-04-03T05:42:32;6.07;;;4.40;;
1024;SDS011;501;48.214;11.350;2023-04-03T05:44:58;5.07;;;4.20;;
1024;SDS011;501;48.214;11.350;2023-04-03T05:47:23;5.57;;;4.20;;
1024;SDS011;501;48.214;11.350;2023-04-03T05:49:49;5.60;;;4.50;;
1024;SDS011;501;48.214;11.350;2023-04-03T05:52:22;6.53;;;4.77;;
1024;SDS011;501;48.214;11.350;2023-04-03T05:54:51;4.70;;;4.10;;
1024;SDS011;501;48.214;11.350;2023-04-03T05:57:18;5.03;;;4.50;;
1024;SDS011;501;48.214;11.350;2023-04-03T05:59:44;6.13;;;5.13;;
1024;SDS011;501;48.214;11.350;2023-04-03T06:02:15;7.20;;;5.53;;
1024;SDS011;501;48.214;11.350;2023-04-03T06:04:43;8.97;;;4.97;;
1024;SDS011;501;48.214;11.350;2023-04-03T06:07:15;4.17;;;3.77;;
1024;SDS011;501;48.214;11.350;2023-04-03T06:09:44;7.13;;;4.23;;
1024;SDS011;501;48.214;11.350;2023-04-03T06:12:10;5.30;;;4.67;;
1024;SDS011;501;48.214;11.350;2023-04-03T06:14:36;4.10;;;3.70;;
1024;SDS011;501;48.214;11.350;2023-04-03T06:17:02;8.10;;;4.30;;
1024;SDS011;501;48.214;11.350;2023-04-03T06:19:28;8.20;;;4.50;;
1024;SDS011;501;48.214;11.350;2023-04-03T06:21:54;4.93;;;4.40;;
1024;SDS011;501;48.214;11.350;2023-04-03T06:24:19;7.20;;;4.17;;
1024;SDS011;501;48.214;11.350;2023-04-03T06:26:46;5.17;;;4.50;;
1024;SDS011;501;48.214;11.350;2023-04-03T06:29:12;5.20;;;4.47;;
1024;SDS011;501;48.214;11.350;2023-04-03T06:31:38;7.83;;;4.60;;
1024;SDS011;501;48.214;11.350;2023-04-03T06:34:04;6.77;;;4.60;;
1024;SDS011;501;48.214;11.350;2023-04-03T06:36:31;5.83;;;4.63;;
1024;SDS011;501;48.214;11.350;2023-04-03T06:38:56;5.60;;;4.37;;
1024;SDS011;501;48.214;11.350;2023-04-03T06:41:22;5.80;;;4.80;;
1024;SDS011;501;48.214;11.350;2023-04-03T06:43:48;4.70;;;4.00;;
1024;SDS011;501;48.214;11.350;2023-04-03T06:46:14;4.90;;;4.40;;
1024;SDS011;501;48.214;11.350;2023-04-03T06:48:45;4.80;;;4.27;;
1024;SDS011;501;48.214;11.350;2023-04-03T06:51:21;4.80;;;4.30;;
1024;SDS011;501;48.214;11.350;2023-04-03T06:53:49;5.97;;;3.80;;
1024;SDS011;501;48.214;11.350;2023-04-03T06:56:16;4.53;;;4.10;;
1024;SDS011;501;48.214;11.350;2023-04-03T06:58:43;5.50;;;4.23;;
1024;SDS011;501;48.214;11.350;2023-04-03T07:01:09;7.73;;;5.17;;
1024;SDS011;501;48.214;11.350;2023-04-03T07:03:37;5.70;;;4.80;;
1024;SDS011;501;48.214;11.350;2023-04-03T07:06:04;6.40;;;5.23;;
1024;SDS011;501;48.214;11.350;2023-04-03T07:08:30;7.17;;;5.50;;
1024;SDS011;501;48.214;11.350;2023-04-03T07:10:57;6.60;;;4.90;;
1024;SDS011;501;48.214;11.350;2023-04-03T07:13:22;8.43;;;4.57;;
1024;SDS011;501;48.214;11.350;2023-04-03T07:15:48;7.20;;;5.73;;
1024;SDS011;501;48.214;11.350;2023-04-03T07:18:15;7.10;;;5.50;;
1024;SDS011;501;48.214;11.350;2023-04-03T07:20:42;5.53;;;5.03;;
1024;SDS011;501;48.214;11.350;2023-04-03T07:23:08;6.00;;;5.10;;
1024;SDS011;501;48.214;11.350;2023-04-03T07:25:34;6.13;;;4.60;;
1024;SDS011;501;48.214;11.350;2023-04-03T07:27:59;8.67;;;5.10;;
1024;SDS011;501;48.214;11.350;2023-04-03T07:30:25;9.33;;;4.80;;
1024;SDS011;501;48.214;11.350;2023-04-03T07:32:51;5.27;;;4.57;;
1024;SDS011;501;48.214;11.350;2023-04-03T07:35:17;5.73;;;4.90;;
1024;SDS011;501;48.214;11.350;2023-04-03T07:37:43;4.93;;;4.27;;
1024;SDS011;501;48.214;11.350;2023-04-03T07:40:09;6.67;;;4.93;;
1024;SDS011;501;48.214;11.350;2023-04-03T07:42:35;5.07;;;4.57;;
1024;SDS011;501;48.214;11.350;2023-04-03T07:45:01;6.20;;;4.80;;
1024;SDS011;501;48.214;11.350;2023-04-03T07:47:28;6.40;;;4.80;;
1024;SDS011;501;48.214;11.350;2023-04-03T07:49:53;7.20;;;5.43;;
1024;SDS011;501;48.214;11.350;2023-04-03T07:52:19;6.93;;;5.43;;
1024;SDS011;501;48.214;11.350;2023-04-03T07:54:45;8.37;;;5.57;;
1024;SDS011;501;48.214;11.350;2023-04-03T07:57:10;6.97;;;5.50;;
1024;SDS011;501;48.214;11.350;2023-04-03T07:59:36;5.87;;;5.30;;
1024;SDS011;501;48.214;11.350;2023-04-03T08:02:02;5.50;;;5.00;;
1024;SDS011;501;48.214;11.350;2023-04-03T08:04:29;5.30;;;4.80;;
1024;SDS011;501;48.214;11.350;2023-04-03T08:06:55;6.50;;;5.27;;
1024;SDS011;501;48.214;11.350;2023-04-03T08:09:21;6.03;;;5.43;;
1024;SDS011;501;48.214;11.350;2023-04-03T08:11:47;6.23;;;5.57;;
1024;SDS011;501;48.214;11.350;2023-04-03T08:14:12;6.63;;;4.73;;
1024;SDS011;501;48.214;11.350;2023-04-03T08:16:42;5.30;;;4.53;;
1024;SDS011;501;48.214;11.350;2023-04-03T08:19:09;5.90;;;5.30;;
1024;SDS011;501;48.214;11.350;2023-04-03T08:21:36;6.10;;;4.60;;
1024;SDS011;501;48.214;11.350;2023-04-03T08:24:02;6.63;;;5.00;;
1024;SDS011;501;48.214;11.350;2023-04-03T08:26:29;5.87;;;5.37;;
1024;SDS011;501;48.214;11.350;2023-04-03T08:28:54;5.33;;;4.83;;
1024;SDS011;501;48.214;11.350;2023-04-03T08:31:20;5.80;;;4.60;;
1024;SDS011;501;48.214;11.350;2023-04-03T08:33:46;5.80;;;4.37;;
1024;SDS011;501;48.214;11.350;2023-04-03T08:36:17;5.40;;;4.90;;
1024;SDS011;501;48.214;11.350;2023-04-03T08:38:48;8.93;;;5.00;;
1024;SDS011;501;48.214;11.350;2023-04-03T08:44:03;6.50;;;5.17;;
1024;SDS011;501;48.214;11.350;2023-04-03T08:46:52;5.60;;;5.10;;
1024;SDS011;501;48.214;11.350;2023-04-03T08:49:28;5.63;;;5.13;;
1024;SDS011;501;48.214;11.350;2023-04-03T08:52:01;6.83;;;4.97;;
1024;SDS011;501;48.214;11.350;2023-04-03T08:57:30;6.40;;;5.53;;
1024;SDS011;501;48.214;11.350;2023-04-03T09:00:03;5.97;;;5.23;;
1024;SDS011;501;48.214;11.350;2023-04-03T09:02:34;5.87;;;4.50;;
1024;SDS011;501;48.214;11.350;2023-04-03T09:05:11;11.30;;;5.30;;
1024;SDS011;501;48.214;11.350;2023-04-03T09:07:42;6.73;;;5.70;;
1024;SDS011;501;48.214;11.350;2023-04-03T09:10:12;5.70;;;5.03;;
1024;SDS011;501;48.214;11.350;2023-04-03T09:12:41;5.70;;;5.20;;
1024;SDS011;501;48.214;11.350;2023-04-03T09:15:20;5.27;;;4.73;;
1024;SDS011;501;48.214;11.350;2023-04-03T09:25:43;5.60;;;4.77;;
1024;SDS011;501;48.214;11.350;2023-04-03T09:28:09;5.47;;;3.93;;
1024;SDS011;501;48.214;11.350;2023-04-03T09:30:35;6.13;;;4.90;;
1024;SDS011;501;48.214;11.350;2023-04-03T09:33:02;11.50;;;6.13;;
1024;SDS011;501;48.214;11.350;2023-04-03T09:35:30;5.73;;;5.10;;
1024;SDS011;501;48.214;11.350;2023-04-03T09:37:58;5.30;;;4.80;;
1024;SDS011;501;48.214;11.350;2023-04-03T09:42:52;5.43;;;4.90;;
1024;SDS011;501;48.214;11.350;2023-04-03T09:45:23;5.33;;;4.53;;
1024;SDS011;501;48.214;11.350;2023-04-03T09:47:50;11.33;;;6.03;;
1024;SDS011;501;48.214;11.350;2023-04-03T09:50:40;5.43;;;4.30;;
1024;SDS011;501;48.214;11.350;2023-04-03T09:53:36;5.27;;;4.77;;
1024;SDS011;501;48.214;11.350;2023-04-03T09:56:26;5.97;;;5.40;;
1024;SDS011;501;48.214;11.350;2023-04-03T10:01:30;5.37;;;4.17;;
1024;SDS011;501;48.214;11.350;2023-04-03T10:04:04;4.50;;;4.20;;
1024;SDS011;501;48.214;11.350;2023-04-03T10:06:41;8.20;;;4.67;;
1024;SDS011;501;48.214;11.350;2023-04-03T10:09:28;5.53;;;5.00;;
1024;SDS011;501;48.214;11.350;2023-04-03T10:12:08;6.70;;;5.40;;
1024;SDS011;501;48.214;11.350;2023-04-03T10:14:38;4.80;;;4.40;;
1024;SDS011;501;48.214;11.350;2023-04-03T10:19:48;6.63;;;5.93;;
1024;SDS011;501;48.214;11.350;2023-04-03T10:25:47;4.93;;;4.43;;
1024;SDS011;501;48.214;11.350;2023-04-03T10:28:26;4.93;;;4.53;;
1024;SDS011;501;48.214;11.350;2023-04-03T10:33:41;4.57;;;4.20;;
1024;SDS011;501;48.214;11.350;2023-04-03T10:36:24;5.43;;;4.00;;
1024;SDS011;501;48.214;11.350;2023-04-03T10:39:19;4.77;;;4.27;;
1024;SDS011;501;48.214;11.350;2023-04-03T10:42:14;6.27;;;4.27;;
1024;SDS011;501;48.214;11.350;2023-04-03T11:01:00;4.43;;;3.83;;
1024;SDS011;501;48.214;11.350;2023-04-03T11:03:38;4.17;;;3.33;;
1024;SDS011;501;48.214;11.350;2023-04-03T11:06:10;6.33;;;3.67;;
1024;SDS011;501;48.214;11.350;2023-04-03T11:11:26;4.07;;;3.77;;
1024;SDS011;501;48.214;11.350;2023-04-03T11:16:36;3.97;;;3.57;;
1024;SDS011;501;48.214;11.350;2023-04-03T11:24:46;2.97;;;2.67;;
1024;SDS011;501;48.214;11.350;2023-04-03T11:27:22;4.47;;;3.83;;
1024;SDS011;501;48.214;11.350;2023-04-03T11:29:49;5.37;;;3.50;;
1024;SDS011;501;48.214;11.350;2023-04-03T11:32:36;4.30;;;3.07;;
1024;SDS011;501;48.214;11.350;2023-04-03T11:35:17;3.73;;;3.40;;
1024;SDS011;501;48.214;11.350;2023-04-03T11:37:47;2.70;;;2.50;;
1024;SDS011;501;48.214;11.350;2023-04-03T11:42:46;3.73;;;2.77;;
1024;SDS011;501;48.214;11.350;2023-04-03T11:45:34;2.80;;;2.60;;
1024;SDS011;501;48.214;11.350;2023-04-03T11:48:09;2.57;;;2.37;;
1024;SDS011;501;48.214;11.350;2023-04-03T11:53:42;2.73;;;2.50;;
1024;SDS011;501;48.214;11.350;2023-04-03T11:56:27;2.93;;;2.40;;
1024;SDS011;501;48.214;11.350;2023-04-03T12:01:53;3.27;;;2.70;;
1024;SDS011;501;48.214;11.350;2023-04-03T12:04:26;2.90;;;2.60;;
1024;SDS011;501;48.214;11.350;2023-04-03T12:06:53;2.60;;;2.40;;
1024;SDS011;501;48.214;11.350;2023-04-03T12:17:47;4.10;;;2.47;;
1024;SDS011;501;48.214;11.350;2023-04-03T12:23:25;3.00;;;2.70;;
1024;SDS011;501;48.214;11.350;2023-04-03T12:25:53;2.80;;;2.20;;
1024;SDS011;501;48.214;11.350;2023-04-03T12:28:48;2.90;;;2.50;;
1024;SDS011;501;48.214;11.350;2023-04-03T12:31:16;2.73;;;2.53;;
1024;SDS011;501;48.214;11.350;2023-04-03T12:36:29;4.03;;;2.63;;
1024;SDS011;501;48.214;11.350;2023-04-03T12:39:22;2.87;;;2.50;;
1024;SDS011;501;48.214;11.350;2023-04-03T12:42:55;3.17;;;2.30;;
1024;SDS011;501;48.214;11.350;2023-04-03T12:44:56;2.53;;;2.33;;
1024;SDS011;501;48.214;11.350;2023-04-03T12:47:34;2.87;;;2.00;;
1024;SDS011;501;48.214;11.350;2023-04-03T12:50:13;2.23;;;2.00;;
1024;SDS011;501;48.214;11.350;2023-04-03T12:53:32;2.10;;;2.00;;
1024;SDS011;501;48.214;11.350;2023-04-03T12:58:46;2.50;;;2.30;;
1024;SDS011;501;48.214;11.350;2023-04-03T13:01:15;3.10;;;1.87;;
1024;SDS011;501;48.214;11.350;2023-04-03T13:03:47;3.00;;;2.10;;
1024;SDS011;501;48.214;11.350;2023-04-03T13:06:16;2.17;;;1.80;;
1024;SDS011;501;48.214;11.350;2023-04-03T13:11:22;2.30;;;2.03;;
1024;SDS011;501;48.214;11.350;2023-04-03T13:13:53;2.13;;;2.03;;
1024;SDS011;501;48.214;11.350;2023-04-03T13:16:30;2.40;;;2.20;;
1024;SDS011;501;48.214;11.350;2023-04-03T13:18:57;2.43;;;2.00;;
1024;SDS011;501;48.214;11.350;2023-04-03T13:21:27;2.03;;;1.63;;
1024;SDS011;501;48.214;11.350;2023-04-03T13:23:56;2.00;;;1.80;;
1024;SDS011;501;48.214;11.350;2023-04-03T13:26:24;2.13;;;2.03;;
1024;SDS011;501;48.214;11.350;2023-04-03T13:28:54;1.83;;;1.63;;
1024;SDS011;501;48.214;11.350;2023-04-03T13:31:28;4.87;;;2.37;;
1024;SDS011;501;48.214;11.350;2023-04-03T13:41:46;2.23;;;1.80;;
1024;SDS011;501;48.214;11.350;2023-04-03T13:44:17;5.33;;;2.40;;
1024;SDS011;501;48.214;11.350;2023-04-03T13:46:47;1.60;;;1.50;;
1024;SDS011;501;48.214;11.350;2023-04-03T13:49:58;1.97;;;1.77;;
1024;SDS011;501;48.214;11.350;2023-04-03T13:52:17;2.47;;;2.00;;
1024;SDS011;501;48.214;11.350;2023-04-03T13:54:53;2.20;;;1.70;;
1024;SDS011;501;48.214;11.350;2023-04-03T13:57:21;2.37;;;1.97;;
1024;SDS011;501;48.214;11.350;2023-04-03T13:59:47;2.13;;;1.67;;
1024;SDS011;501;48.214;11.350;2023-04-03T14:02:21;2.30;;;1.90;;
1024;SDS011;501;48.214;11.350;2023-04-03T14:04:58;2.77;;;1.87;;
1024;SDS011;501;48.214;11.350;2023-04-03T14:07:26;3.20;;;2.47;;
1024;SDS011;501;48.214;11.350;2023-04-03T14:09:54;2.50;;;1.93;;
1024;SDS011;501;48.214;11.350;2023-04-03T14:12:27;1.67;;;1.57;;
1024;SDS011;501;48.214;11.350;2023-04-03T14:14:58;2.17;;;1.97;;
1024;SDS011;501;48.214;11.350;2023-04-03T14:17:26;2.17;;;1.87;;
1024;SDS011;501;48.214;11.350;2023-04-03T14:19:53;2.00;;;1.73;;
1024;SDS011;501;48.214;11.350;2023-04-03T14:24:48;2.03;;;1.93;;
1024;SDS011;501;48.214;11.350;2023-04-03T14:29:45;1.87;;;1.77;;
1024;SDS011;501;48.214;11.350;2023-04-03T14:32:12;2.73;;;2.23;;
1024;SDS011;501;48.214;11.350;2023-04-03T14:34:39;2.80;;;2.23;;
1024;SDS011;501;48.214;11.350;2023-04-03T14:37:09;2.93;;;2.20;;
1024;SDS011;501;48.214;11.350;2023-04-03T14:39:40;1.90;;;1.70;;
1024;SDS011;501;48.214;11.350;2023-04-03T14:42:06;3.57;;;2.20;;
1024;SDS011;501;48.214;11.350;2023-04-03T14:44:36;1.60;;;1.50;;
1024;SDS011;501;48.214;11.350;2023-04-03T14:47:02;1.10;;;1.10;;
1024;SDS011;501;48.214;11.350;2023-04-03T14:49:27;1.73;;;1.60;;
1024;SDS011;501;48.214;11.350;2023-04-03T14:51:54;2.40;;;1.40;;
1024;SDS011;501;48.214;11.350;2023-04-03T14:54:21;1.83;;;1.40;;
1024;SDS011;501;48.214;11.350;2023-04-03T14:56:52;1.70;;;1.60;;
1024;SDS011;501;48.214;11.350;2023-04-03T14:59:19;1.33;;;1.20;;
1024;SDS011;501;48.214;11.350;2023-04-03T15:01:46;1.77;;;1.43;;
1024;SDS011;501;48.214;11.350;2023-04-03T15:04:16;2.03;;;1.60;;
1024;SDS011;501;48.214;11.350;2023-04-03T15:06:44;1.90;;;1.30;;
1024;SDS011;501;48.214;11.350;2023-04-03T15:09:30;1.20;;;1.10;;
1024;SDS011;501;48.214;11.350;2023-04-03T15:11:55;1.60;;;1.50;;
1024;SDS011;501;48.214;11.350;2023-04-03T15:14:21;1.90;;;1.60;;
1024;SDS011;501;48.214;11.350;2023-04-03T15:16:48;1.30;;;1.20;;
1024;SDS011;501;48.214;11.350;2023-04-03T15:19:14;1.23;;;1.13;;
1024;SDS011;501;48.214;11.350;2023-04-03T15:21:39;1.83;;;1.43;;
1024;SDS011;501;48.214;11.350;2023-04-03T15:24:05;2.60;;;1.40;;
1024;SDS011;501;48.214;11.350;2023-04-03T15:26:31;2.73;;;1.40;;
1024;SDS011;501;48.214;11.350;2023-04-03T15:28:58;2.27;;;1.40;;
1024;SDS011;501;48.214;11.350;2023-04-03T15:31:23;2.70;;;1.27;;
1024;SDS011;501;48.214;11.350;2023-04-03T15:33:49;1.17;;;1.00;;
1024;SDS011;501;48.214;11.350;2023-04-03T15:36:15;2.40;;;1.70;;
1024;SDS011;501;48.214;11.350;2023-04-03T15:38:40;4.03;;;1.37;;
1024;SDS011;501;48.214;11.350;2023-04-03T15:41:06;1.93;;;1.40;;
1024;SDS011;501;48.214;11.350;2023-04-03T15:43:32;2.40;;;1.40;;
1024;SDS011;501;48.214;11.350;2023-04-03T15:45:59;3.20;;;1.70;;
1024;SDS011;501;48.214;11.350;2023-04-03T15:48:25;1.63;;;1.53;;
1024;SDS011;501;48.214;11.350;2023-04-03T15:50:52;1.40;;;1.30;;
1024;SDS011;501;48.214;11.350;2023-04-03T15:53:18;3.77;;;1.20;;
1024;SDS011;501;48.214;11.350;2023-04-03T15:55:43;1.40;;;1.30;;
1024;SDS011;501;48.214;11.350;2023-04-03T15:58:09;1.53;;;1.37;;
1024;SDS011;501;48.214;11.350;2023-04-03T16:00:35;0.97;;;0.87;;
1024;SDS011;501;48.214;11.350;2023-04-03T16:03:12;1.83;;;1.30;;
1024;SDS011;501;48.214;11.350;2023-04-03T16:05:40;1.73;;;1.30;;
1024;SDS011;501;48.214;11.350;2023-04-03T16:08:06;1.90;;;1.70;;
1024;SDS011;501;48.214;11.350;2023-04-03T16:10:32;1.60;;;1.23;;
1024;SDS011;501;48.214;11.350;2023-04-03T16:13:01;1.00;;;1.00;;
1024;SDS011;501;48.214;11.350;2023-04-03T16:15:26;1.80;;;1.13;;
1024;SDS011;501;48.214;11.350;2023-04-03T16:17:53;1.73;;;1.47;;
1024;SDS011;501;48.214;11.350;2023-04-03T16:20:19;1.73;;;1.63;;
1024;SDS011;501;48.214;11.350;2023-04-03T16:22:46;1.47;;;1.37;;
1024;SDS011;501;48.214;11.350;2023-04-03T16:25:12;2.77;;;1.40;;
1024;SDS011;501;48.214;11.350;2023-04-03T16:27:38;2.00;;;1.33;;
1024;SDS011;501;48.214;11.350;2023-04-03T16:30:04;1.70;;;1.30;;
1024;SDS011;501;48.214;11.350;2023-04-03T16:32:31;2.63;;;1.67;;
1024;SDS011;501;48.214;11.350;2023-04-03T16:34:58;3.20;;;1.90;;
1024;SDS011;501;48.214;11.350;2023-04-03T16:37:24;2.40;;;1.40;;
1024;SDS011;501;48.214;11.350;2023-04-03T16:39:50;1.67;;;1.57;;
1024;SDS011;501;48.214;11.350;2023-04-03T16:42:16;1.60;;;1.50;;
1024;SDS011;501;48.214;11.350;2023-04-03T16:44:41;1.70;;;1.37;;
1024;SDS011;501;48.214;11.350;2023-04-03T16:47:07;3.90;;;1.43;;
1024;SDS011;501;48.214;11.350;2023-04-03T16:49:33;1.73;;;1.63;;
1024;SDS011;501;48.214;11.350;2023-04-03T16:52:00;2.40;;;1.73;;
1024;SDS011;501;48.214;11.350;2023-04-03T16:54:27;1.37;;;1.30;;
1024;SDS011;501;48.214;11.350;2023-04-03T16:56:53;3.37;;;1.60;;
1024;SDS011;501;48.214;11.350;2023-04-03T16:59:18;1.80;;;1.47;;
1024;SDS011;501;48.214;11.350;2023-04-03T17:01:44;2.83;;;1.80;;
1024;SDS011;501;48.214;11.350;2023-04-03T17:04:10;3.90;;;1.90;;
1024;SDS011;501;48.214;11.350;2023-04-03T17:06:37;1.30;;;1.17;;
1024;SDS011;501;48.214;11.350;2023-04-03T17:09:03;2.60;;;1.70;;